Time;durP1;ratioP1;P1;durP2;ratioP2;P2;SDS_P1;SDS_P2;PMS_P1;PMS_P2;Temp;Humidity;BMP_temperature;BMP_pressure;BME280_temperature;BME280_humidity;BME280_pressure;Samples;Min_cycle;Max_cycle;Signal;HPM_P1;HPM_P2
2022/09/19 00:00:22;;;;;;;3.45;3.03;;;;;;;;;;5091528;28;20347;-70
2022/09/19 00:02:49;;;;;;;3.10;2.90;;;;;;;;;;5091213;28;20194;-70
2022/09/19 00:05:15;;;;;;;13.23;3.28;;;;;;;;;;5091459;28;20267;-72
2022/09/19 00:07:43;;;;;;;3.38;3.10;;;;;;;;;;5091105;28;20225;-71
2022/09/19 00:10:10;;;;;;;4.53;3.80;;;;;;;;;;5090925;28;20788;-70
2022/09/19 00:12:37;;;;;;;3.78;3.35;;;;;;;;;;5091439;28;20254;-68
2022/09/19 00:15:04;;;;;;;3.55;3.25;;;;;;;;;;5090847;28;20283;-68
2022/09/19 00:17:30;;;;;;;4.00;3.60;;;;;;;;;;5091380;28;20206;-68
2022/09/19 00:19:57;;;;;;;4.50;2.97;;;;;;;;;;5091150;28;20198;-69
2022/09/19 00:22:23;;;;;;;3.83;2.97;;;;;;;;;;5090841;28;20667;-69
2022/09/19 00:24:50;;;;;;;3.03;2.78;;;;;;;8.50;nan;95100.69;5090694;28;20193;-69
2022/09/19 00:27:19;;;;;;;3.72;2.90;;;;;;;8.45;nan;95107.56;5090753;28;20201;-70
2022/09/19 00:29:47;;;;;;;9.77;3.15;;;;;;;8.59;nan;95100.47;5091596;28;20205;-69
2022/09/19 00:32:15;;;;;;;3.35;2.33;;;;;;;8.58;nan;95108.94;5091347;28;20220;-69
2022/09/19 00:34:43;;;;;;;3.70;2.78;;;;;;;8.41;nan;95103.47;5091115;28;20233;-70
2022/09/19 00:37:11;;;;;;;3.55;2.50;;;;;;;8.11;nan;95108.34;5091477;28;20194;-70
2022/09/19 00:39:39;;;;;;;3.20;3.00;;;;;;;7.64;nan;95111.94;5091061;28;20744;-69
2022/09/19 00:42:15;;;;;;;3.38;2.63;;;;;;;7.86;nan;95114.84;5091286;28;20671;-67
2022/09/19 00:45:01;;;;;;;2.63;2.42;;;;;;;8.08;nan;95110.94;5091409;28;20195;-71
2022/09/19 00:47:35;;;;;;;2.35;2.15;;;;;;;8.12;nan;95112.53;5090904;28;20693;-70
2022/09/19 00:50:06;;;;;;;2.80;2.60;;;;;;;8.08;nan;95118.53;5091174;28;20194;-66
2022/09/19 00:52:40;;;;;;;2.55;2.35;;;;;;;7.87;nan;95119.03;5090727;28;20583;-69
2022/09/19 00:55:07;;;;;;;2.53;2.30;;;;;;;7.79;nan;95128.47;5093388;28;20275;-68
2022/09/19 00:57:46;;;;;;;3.13;2.35;;;;;;;7.58;nan;95116.28;5096209;28;20202;-72
2022/09/19 01:00:14;;;;;;;3.63;2.38;;;;;;;7.53;nan;95107.97;5093624;28;20227;-69
2022/09/19 01:02:41;;;;;;;2.70;2.50;;;;;;;7.52;nan;95112.19;5094256;28;20236;-70
2022/09/19 01:05:08;;;;;;;3.45;2.50;;;;;;;7.68;nan;95102.56;5093042;28;20218;-70
2022/09/19 01:07:45;;;;;;;2.50;2.40;;;;;;;7.80;nan;95102.31;5094853;28;20282;-70
2022/09/19 01:10:23;;;;;;;3.05;2.85;;;;;;;8.00;nan;95100.16;5094438;28;20671;-68
2022/09/19 01:13:00;;;;;;;4.22;2.47;;;;;;;7.92;nan;95107.09;5094335;28;20197;-70
2022/09/19 01:15:38;;;;;;;5.63;2.35;;;;;;;8.25;nan;95109.72;5094377;28;20279;-69
2022/09/19 01:18:07;;;;;;;2.58;2.38;;;;;;;8.19;nan;95106.44;5094090;28;20201;-70
2022/09/19 01:24:08;;;;;;;3.88;2.47;;;;;;;7.66;nan;95109.38;5093236;28;20288;-69
2022/09/19 01:26:56;;;;;;;5.68;2.28;;;;;;;7.86;nan;95107.25;5094049;28;20201;-70
2022/09/19 01:29:29;;;;;;;3.72;2.92;;;;;;;8.02;nan;95102.66;5093783;28;20265;-69
2022/09/19 01:31:58;;;;;;;3.58;2.78;;;;;;;7.60;nan;95100.22;5094375;28;20255;-69
2022/09/19 01:34:32;;;;;;;2.70;2.47;;;;;;;7.08;nan;95088.66;5093719;28;20225;-69
2022/09/19 01:37:04;;;;;;;2.63;2.42;;;;;;;6.77;nan;95095.97;5094010;28;20198;-70
2022/09/19 01:39:33;;;;;;;2.20;2.10;;;;;;;6.98;nan;95096.44;5093553;28;20255;-69
2022/09/19 01:42:01;;;;;;;3.42;3.13;;;;;;;7.17;nan;95097.75;5093922;28;20610;-69
2022/09/19 01:44:31;;;;;;;3.13;2.92;;;;;;;7.47;nan;95099.63;5093528;28;20200;-70
2022/09/19 01:47:08;;;;;;;2.50;2.33;;;;;;;7.58;nan;95101.13;5093984;28;20562;-69
2022/09/19 01:49:47;;;;;;;2.85;2.53;;;;;;;7.47;nan;95103.88;5094068;28;20285;-71
2022/09/19 01:52:22;;;;;;;4.57;2.58;;;;;;;7.67;nan;95100.94;5093489;28;20667;-70
2022/09/19 01:54:58;;;;;;;3.45;1.95;;;;;;;7.79;nan;95095.59;5093347;28;20224;-69
2022/09/19 01:57:39;;;;;;;2.40;2.30;;;;;;;7.80;nan;95092.19;5093393;28;20293;-69
2022/09/19 02:00:12;;;;;;;5.53;2.80;;;;;;;7.95;nan;95091.84;5092952;28;20202;-70
2022/09/19 02:02:48;;;;;;;4.50;2.17;;;;;;;7.92;nan;95096.16;5092770;28;20206;-71
2022/09/19 02:05:22;;;;;;;2.20;2.00;;;;;;;7.95;nan;95091.84;5092009;28;20225;-71
2022/09/19 02:08:00;;;;;;;4.07;2.17;;;;;;;7.87;nan;95093.72;5092869;28;20745;-69
2022/09/19 02:10:33;;;;;;;2.17;2.08;;;;;;;7.88;nan;95090.34;5092686;28;20197;-70
2022/09/19 02:13:03;;;;;;;2.90;2.58;;;;;;;7.98;nan;95089.25;5092980;28;20202;-70
2022/09/19 02:15:34;;;;;;;3.28;2.30;;;;;;;8.05;nan;95080.66;5092908;28;20221;-69
2022/09/19 02:18:05;;;;;;;2.50;2.30;;;;;;;8.07;nan;95086.50;5092605;28;20954;-70
2022/09/19 02:20:35;;;;;;;2.83;2.58;;;;;;;8.02;nan;95083.25;5093155;28;20198;-70
2022/09/19 02:23:06;;;;;;;2.30;2.10;;;;;;;8.03;nan;95076.47;5092847;28;20251;-70
2022/09/19 02:25:36;;;;;;;3.72;2.40;;;;;;;8.03;nan;95081.53;5092624;28;20201;-70
2022/09/19 02:28:08;;;;;;;6.10;2.08;;;;;;;8.04;nan;95076.44;5092296;28;20198;-70
2022/09/19 02:30:37;;;;;;;2.65;2.45;;;;;;;7.72;nan;95074.66;5092383;28;20251;-70
2022/09/19 02:33:07;;;;;;;2.45;2.25;;;;;;;7.73;nan;95073.78;5093309;28;20205;-69
2022/09/19 02:35:41;;;;;;;3.08;2.05;;;;;;;7.18;nan;95072.44;5091852;28;20221;-68
2022/09/19 02:38:17;;;;;;;8.02;2.38;;;;;;;6.63;nan;95067.63;5089726;28;20201;-69
2022/09/19 02:40:52;;;;;;;5.03;2.85;;;;;;;6.25;nan;95065.75;5089150;28;20189;-69
2022/09/19 02:43:30;;;;;;;3.95;2.20;;;;;;;6.14;nan;95073.53;5091610;28;20185;-68
2022/09/19 02:46:04;;;;;;;4.00;2.17;;;;;;;6.46;nan;95069.59;5091702;28;20189;-67
2022/09/19 02:48:44;;;;;;;3.25;2.90;;;;;;;6.20;nan;95072.56;5089821;28;20208;-68
2022/09/19 02:51:14;;;;;;;2.75;2.55;;;;;;;6.00;nan;95070.38;5077657;28;20243;-69
2022/09/19 02:53:46;;;;;;;3.22;2.20;;;;;;;6.38;nan;95084.91;5091876;28;20251;-69
2022/09/19 02:56:16;;;;;;;2.72;2.50;;;;;;;6.62;nan;95081.13;5091071;28;20214;-69
2022/09/19 02:58:49;;;;;;;2.75;2.30;;;;;;;6.43;nan;95073.00;5091998;28;20254;-69
2022/09/19 03:01:22;;;;;;;2.38;2.28;;;;;;;6.93;nan;95076.28;5091589;28;20740;-69
2022/09/19 03:06:43;;;;;;;3.30;2.45;;;;;;;7.06;nan;95076.91;5088922;28;20658;-69
2022/09/19 03:09:13;;;;;;;2.75;2.53;;;;;;;7.10;nan;95083.56;5092053;28;20190;-68
2022/09/19 03:11:46;;;;;;;3.15;2.42;;;;;;;7.02;nan;95075.28;5092399;28;20219;-69
2022/09/19 03:14:13;;;;;;;2.50;2.30;;;;;;;7.04;nan;95073.56;5092388;28;20311;-69
2022/09/19 03:16:43;;;;;;;6.75;2.60;;;;;;;6.62;nan;95080.28;5091979;28;20612;-68
2022/09/19 03:19:11;;;;;;;7.13;2.80;;;;;;;6.51;nan;95075.41;5091863;28;20197;-69
2022/09/19 03:21:38;;;;;;;2.83;2.60;;;;;;;6.74;nan;95080.88;5092007;28;20185;-69
2022/09/19 03:24:06;;;;;;;6.68;3.88;;;;;;;7.01;nan;95076.16;5092188;28;20286;-69
2022/09/19 03:26:34;;;;;;;2.55;2.38;;;;;;;7.05;nan;95076.06;5091803;28;20197;-69
2022/09/19 03:29:03;;;;;;;4.90;2.83;;;;;;;7.12;nan;95075.09;5092459;28;20197;-71
2022/09/19 03:31:30;;;;;;;2.45;2.33;;;;;;;6.96;nan;95075.41;5092814;28;20228;-69
2022/09/19 03:33:58;;;;;;;2.67;2.30;;;;;;;6.85;nan;95078.16;5092365;28;20197;-69
2022/09/19 03:36:28;;;;;;;3.83;2.80;;;;;;;6.41;nan;95076.44;5091719;28;20710;-70
2022/09/19 03:39:01;;;;;;;3.55;3.00;;;;;;;6.00;nan;95067.84;5092231;28;20254;-69
2022/09/19 03:41:29;;;;;;;3.38;3.17;;;;;;;5.80;nan;95067.28;5091327;28;20197;-68
2022/09/19 03:44:00;;;;;;;7.57;3.08;;;;;;;5.91;nan;95059.63;5092340;28;20197;-68
2022/09/19 03:46:27;;;;;;;3.35;3.05;;;;;;;5.85;nan;95055.47;5091485;28;20667;-69
2022/09/19 03:48:54;;;;;;;2.90;2.70;;;;;;;5.90;nan;95047.84;5092139;28;20198;-69
2022/09/19 03:51:23;;;;;;;3.30;3.10;;;;;;;6.46;nan;95054.44;5092010;28;20257;-69
2022/09/19 03:53:49;;;;;;;4.47;2.85;;;;;;;6.85;nan;95057.94;5092012;28;20194;-70
2022/09/19 03:56:17;;;;;;;2.85;2.65;;;;;;;6.97;nan;95051.81;5091703;28;20225;-70
2022/09/19 03:58:44;;;;;;;25.75;16.90;;;;;;;6.70;nan;95046.44;5091179;28;20229;-67
2022/09/19 04:01:15;;;;;;;18.40;13.13;;;;;;;6.50;nan;95043.44;5090932;28;20197;-69
2022/09/19 04:03:42;;;;;;;14.82;7.40;;;;;;;6.34;nan;95042.06;5091344;28;20200;-68
2022/09/19 04:06:10;;;;;;;6.72;4.28;;;;;;;6.10;nan;95045.84;5091809;28;20271;-69
2022/09/19 04:08:38;;;;;;;7.00;5.15;;;;;;;6.00;nan;95039.28;5091589;28;20198;-69
2022/09/19 04:11:06;;;;;;;6.78;4.93;;;;;;;6.22;nan;95044.78;5091692;28;20671;-68
2022/09/19 04:13:33;;;;;;;13.23;5.07;;;;;;;6.15;nan;95046.59;5091144;28;20205;-69
2022/09/19 04:16:01;;;;;;;5.15;4.75;;;;;;;6.21;nan;95043.13;5091831;28;20221;-70
2022/09/19 04:18:28;;;;;;;6.57;5.90;;;;;;;6.35;nan;95046.25;5091333;28;20690;-69
2022/09/19 04:20:56;;;;;;;53.78;27.27;;;;;;;6.30;nan;95042.97;5091437;28;20198;-71
2022/09/19 04:23:25;;;;;;;15.32;8.90;;;;;;;6.17;nan;95042.38;5091117;28;20209;-70
2022/09/19 04:25:53;;;;;;;10.73;6.97;;;;;;;6.18;nan;95058.34;5091468;28;20197;-70
2022/09/19 04:28:21;;;;;;;6.03;5.40;;;;;;;6.64;nan;95049.09;5091433;28;20198;-71
2022/09/19 04:30:47;;;;;;;5.63;5.05;;;;;;;7.00;nan;95041.66;5095521;28;20201;-67
2022/09/19 04:33:18;;;;;;;13.77;6.20;;;;;;;7.09;nan;95047.38;5094825;28;20689;-67
2022/09/19 04:35:45;;;;;;;25.95;15.20;;;;;;;7.27;nan;95045.31;5095011;28;20653;-67
2022/09/19 04:38:14;;;;;;;19.30;12.10;;;;;;;7.40;nan;95052.63;5095401;28;20205;-68
2022/09/19 04:40:42;;;;;;;10.00;7.68;;;;;;;7.56;nan;95044.69;5095115;28;20204;-70
2022/09/19 04:43:13;;;;;;;15.32;5.90;;;;;;;7.58;nan;95045.47;5094941;28;20202;-68
2022/09/19 04:45:42;;;;;;;10.43;4.75;;;;;;;7.72;nan;95040.94;5095141;28;20197;-71
2022/09/19 04:48:09;;;;;;;8.65;5.00;;;;;;;7.93;nan;95042.97;5095542;28;20208;-70
2022/09/19 04:50:37;;;;;;;10.30;5.05;;;;;;;8.05;nan;95046.91;5094968;28;20202;-68
2022/09/19 04:53:04;;;;;;;11.27;5.50;;;;;;;8.18;nan;95038.97;5095435;28;20255;-68
2022/09/19 04:55:31;;;;;;;21.38;6.78;;;;;;;8.12;nan;95038.31;5094801;28;20231;-68
2022/09/19 04:58:00;;;;;;;12.48;5.78;;;;;;;8.08;nan;95042.63;5094791;28;20744;-67
2022/09/19 05:00:40;;;;;;;14.70;5.25;;;;;;;8.25;nan;95039.66;5094341;28;20198;-70
2022/09/19 05:03:09;;;;;;;12.07;6.05;;;;;;;8.30;nan;95042.09;5094434;28;20250;-70
2022/09/19 05:05:37;;;;;;;6.25;5.60;;;;;;;8.55;nan;95043.16;5093960;28;20715;-70
2022/09/19 05:08:06;;;;;;;9.65;5.60;;;;;;;8.82;nan;95042.41;5094144;28;20658;-70
2022/09/19 05:10:33;;;;;;;16.33;6.05;;;;;;;8.85;nan;95047.41;5094642;28;21213;-69
2022/09/19 05:13:00;;;;;;;8.75;6.53;;;;;;;8.91;nan;95053.19;5094323;28;20263;-69
2022/09/19 05:15:28;;;;;;;16.52;8.13;;;;;;;9.09;nan;95055.22;5093912;28;20194;-68
2022/09/19 05:17:56;;;;;;;17.17;8.00;;;;;;;9.19;nan;95057.44;5094282;28;20627;-70
2022/09/19 05:20:26;;;;;;;15.60;5.53;;;;;;;9.38;nan;95057.75;5093770;28;20240;-71
2022/09/19 05:22:56;;;;;;;15.82;5.60;;;;;;;10.20;nan;95052.69;5094075;28;20201;-69
2022/09/19 05:25:23;;;;;;;10.10;3.83;;;;;;;12.10;nan;95065.41;5094221;28;20216;-70
2022/09/19 05:27:50;;;;;;;12.48;3.38;;;;;;;14.50;nan;95053.94;5093870;28;20632;-69
2022/09/19 05:30:17;;;;;;;7.63;3.20;;;;;;;16.76;nan;95047.03;5093771;28;20208;-68
2022/09/19 05:32:46;;;;;;;3.63;3.22;;;;;;;18.95;nan;95049.59;5093875;28;20561;-69
2022/09/19 05:35:14;;;;;;;3.42;2.45;;;;;;;20.16;nan;95049.84;5093862;28;20289;-68
2022/09/19 05:37:42;;;;;;;9.38;2.60;;;;;;;21.92;nan;95034.94;5093621;28;20201;-72
2022/09/19 05:40:11;;;;;;;7.10;2.78;;;;;;;22.59;nan;95039.94;5092935;28;20266;-70
2022/09/19 05:42:41;;;;;;;3.97;2.53;;;;;;;21.27;nan;95033.94;5093608;28;20240;-70
2022/09/19 05:45:09;;;;;;;6.30;3.28;;;;;;;21.95;nan;95042.47;5093909;28;20203;-70
2022/09/19 05:47:37;;;;;;;3.70;3.40;;;;;;;21.04;nan;95035.59;5093127;28;20194;-70
2022/09/19 05:50:07;;;;;;;3.83;3.33;;;;;;;17.45;nan;95047.16;5093073;28;20202;-69
2022/09/19 05:55:18;;;;;;;4.30;3.50;;;;;;;16.75;nan;95043.63;5093225;28;20200;-70
2022/09/19 05:57:51;;;;;;;3.97;3.28;;;;;;;17.93;nan;95045.09;5092744;28;20258;-69
2022/09/19 06:00:17;;;;;;;9.15;4.05;;;;;;;18.97;nan;95044.34;5093547;28;20225;-69
2022/09/19 06:02:44;;;;;;;8.73;3.60;;;;;;;19.33;nan;95043.63;5093383;28;20202;-69
2022/09/19 06:05:13;;;;;;;5.72;3.42;;;;;;;19.40;nan;95044.84;5093038;28;20233;-69
2022/09/19 06:07:40;;;;;;;7.18;5.53;;;;;;;18.44;nan;95043.53;5093952;28;20688;-70
2022/09/19 06:10:07;;;;;;;5.60;5.10;;;;;;;18.59;nan;95044.25;5094167;28;20736;-66
2022/09/19 06:12:34;;;;;;;3.25;3.05;;;;;;;18.94;nan;95041.97;5094381;28;20254;-68
2022/09/19 06:15:01;;;;;;;4.20;3.63;;;;;;;18.32;nan;95045.13;5093150;28;20259;-68
2022/09/19 06:17:28;;;;;;;11.88;4.18;;;;;;;18.66;nan;95053.28;5092718;28;20279;-68
2022/09/19 06:19:54;;;;;;;5.38;3.80;;;;;;;19.44;nan;95046.28;5092846;28;20198;-69
2022/09/19 06:22:22;;;;;;;4.00;3.60;;;;;;;21.43;nan;95043.91;5092829;28;20255;-69
2022/09/19 06:24:49;;;;;;;4.43;3.92;;;;;;;23.63;nan;95038.16;5092908;28;20193;-69
2022/09/19 06:27:16;;;;;;;3.85;3.55;;;;;;;24.87;nan;95029.84;5092373;28;20198;-69
2022/09/19 06:29:43;;;;;;;4.25;3.75;;;;;;;25.67;nan;95030.22;5093206;28;20201;-70
2022/09/19 06:32:11;;;;;;;4.20;3.80;;;;;;;26.13;nan;95027.66;5092347;28;20202;-68
2022/09/19 06:34:37;;;;;;;8.68;4.35;;;;;;;25.99;nan;95034.97;5092422;28;20224;-69
2022/09/19 06:37:04;;;;;;;6.50;4.53;;;;;;;26.77;nan;95036.09;5092290;28;20648;-70
2022/09/19 06:39:32;;;;;;;4.85;4.47;;;;;;;27.09;nan;95035.56;5092739;28;20205;-69
2022/09/19 06:41:59;;;;;;;9.13;4.25;;;;;;;27.18;nan;95035.63;5092703;28;20209;-70
2022/09/19 06:44:26;;;;;;;7.97;4.90;;;;;;;27.75;nan;95027.16;5093321;28;20263;-71
2022/09/19 06:46:53;;;;;;;10.90;5.00;;;;;;;27.84;nan;95019.38;5093418;28;20200;-67
2022/09/19 06:49:19;;;;;;;8.20;4.43;;;;;;;28.71;nan;95024.13;5093388;28;20285;-68
2022/09/19 06:51:46;;;;;;;11.88;6.53;;;;;;;28.41;nan;95023.81;5092450;28;20197;-70
2022/09/19 06:54:13;;;;;;;8.25;4.32;;;;;;;28.62;nan;95019.91;5092491;28;20205;-68
2022/09/19 06:56:42;;;;;;;8.15;4.60;;;;;;;28.76;nan;95022.66;5092389;28;20218;-69
2022/09/19 06:59:09;;;;;;;9.55;4.07;;;;;;;27.18;nan;95020.00;5092893;28;20197;-73
2022/09/19 07:01:37;;;;;;;3.03;2.80;;;;;;;29.42;nan;95013.03;5092381;28;20671;-69
2022/09/19 07:04:04;;;;;;;4.10;3.70;;;;;;;28.71;nan;95018.91;5091667;28;20225;-67
2022/09/19 07:06:34;;;;;;;8.40;3.75;;;;;;;27.88;nan;95016.28;5092234;28;20282;-67
2022/09/19 07:09:02;;;;;;;3.72;3.42;;;;;;;28.58;nan;95013.34;5092022;28;20198;-69
2022/09/19 07:11:29;;;;;;;5.95;4.22;;;;;;;29.33;nan;95012.19;5092372;28;20201;-69
2022/09/19 07:13:57;;;;;;;6.13;3.33;;;;;;;28.08;nan;95001.97;5092626;28;20633;-67
2022/09/19 07:16:24;;;;;;;6.97;3.42;;;;;;;28.80;nan;94997.00;5092367;28;20222;-68
2022/09/19 07:18:51;;;;;;;4.18;3.45;;;;;;;29.37;nan;95004.81;5091888;28;20202;-71
2022/09/19 07:21:17;;;;;;;4.82;3.72;;;;;;;29.29;nan;94999.59;5091494;28;20205;-68
2022/09/19 07:23:44;;;;;;;5.97;4.32;;;;;;;30.62;nan;95006.59;5091610;28;20671;-68
2022/09/19 07:26:11;;;;;;;8.10;3.58;;;;;;;29.37;nan;95004.81;5091327;28;20194;-68
2022/09/19 07:28:38;;;;;;;10.27;5.07;;;;;;;28.61;nan;95005.19;5091891;28;20197;-70
2022/09/19 07:31:06;;;;;;;19.83;6.85;;;;;;;28.86;nan;95006.03;5091235;28;20200;-69
2022/09/19 07:33:33;;;;;;;8.10;3.60;;;;;;;28.18;nan;94996.63;5092481;28;20262;-69
2022/09/19 07:36:01;;;;;;;7.22;4.15;;;;;;;27.48;nan;95001.22;5091246;28;20197;-68
2022/09/19 07:38:28;;;;;;;5.18;4.30;;;;;;;26.64;nan;94999.19;5091513;28;20238;-70
2022/09/19 07:40:55;;;;;;;9.52;5.70;;;;;;;27.50;nan;94994.03;5091555;28;20204;-71
2022/09/19 07:43:23;;;;;;;11.15;5.85;;;;;;;28.78;nan;94985.88;5091298;28;20255;-68
2022/09/19 07:45:50;;;;;;;22.75;12.00;;;;;;;29.76;nan;94989.97;5090960;28;20235;-68
2022/09/19 07:48:20;;;;;;;6.40;4.60;;;;;;;29.18;nan;94990.31;5091198;28;20223;-68
2022/09/19 07:50:47;;;;;;;5.03;4.32;;;;;;;29.66;nan;94986.75;5091131;28;20573;-70
2022/09/19 07:53:16;;;;;;;6.95;4.60;;;;;;;29.46;nan;94982.88;5091441;28;20201;-69
2022/09/19 07:55:44;;;;;;;5.45;4.75;;;;;;;29.21;nan;94981.28;5090865;28;20206;-65
2022/09/19 07:58:12;;;;;;;15.30;7.47;;;;;;;29.30;nan;94977.66;5091295;28;20221;-66
2022/09/19 08:00:40;;;;;;;6.13;4.25;;;;;;;28.56;nan;94968.25;5091641;28;20205;-69
2022/09/19 08:03:10;;;;;;;5.63;4.03;;;;;;;27.34;nan;94975.72;5092769;28;20198;-69
2022/09/19 08:05:40;;;;;;;10.50;6.60;;;;;;;27.70;nan;94972.00;5094987;28;20229;-69
2022/09/19 08:08:08;;;;;;;12.13;8.52;;;;;;;27.51;nan;94972.19;5095170;28;20243;-68
2022/09/19 08:10:35;;;;;;;9.07;6.57;;;;;;;27.97;nan;94972.69;5096403;28;20224;-71
2022/09/19 08:13:03;;;;;;;5.30;4.32;;;;;;;27.22;nan;94975.16;5096607;28;20836;-69
2022/09/19 08:15:32;;;;;;;6.95;4.43;;;;;;;27.01;nan;94970.31;5095663;28;20202;-70
2022/09/19 08:18:01;;;;;;;10.80;5.03;;;;;;;26.96;nan;94956.09;5095578;28;20221;-67
2022/09/19 08:20:30;;;;;;;7.30;4.10;;;;;;;26.61;nan;94957.78;5095537;28;20193;-68
2022/09/19 08:23:00;;;;;;;5.65;3.72;;;;;;;25.33;nan;94962.28;5095479;28;20742;-67
2022/09/19 08:25:28;;;;;;;9.00;4.30;;;;;;;24.72;nan;94959.31;5094964;28;20198;-67
2022/09/19 08:27:56;;;;;;;6.90;5.93;;;;;;;24.67;nan;94956.28;5094963;28;20194;-68
2022/09/19 08:30:23;;;;;;;5.63;5.13;;;;;;;24.66;nan;94959.84;5094756;28;20205;-68
2022/09/19 08:32:51;;;;;;;8.18;4.93;;;;;;;23.37;nan;94961.69;5094618;28;20258;-68
2022/09/19 08:35:20;;;;;;;7.35;4.60;;;;;;;23.17;nan;94967.78;5094993;28;20194;-68
2022/09/19 08:37:48;;;;;;;10.63;7.70;;;;;;;22.98;nan;94963.31;5094887;28;20275;-69
2022/09/19 08:40:27;;;;;;;6.03;4.35;;;;;;;22.20;nan;94968.91;5094471;28;20742;-68
2022/09/19 08:43:09;;;;;;;7.75;4.40;;;;;;;21.32;nan;95062.00;5094755;28;20193;-68
2022/09/19 08:45:59;;;;;;;8.70;3.42;;;;;;;20.80;nan;95024.53;5094778;28;20229;-67
2022/09/19 08:48:32;;;;;;;5.05;4.43;;;;;;;20.94;nan;95042.41;5095265;28;20596;-69
2022/09/19 08:51:15;;;;;;;5.80;3.78;;;;;;;20.88;nan;95032.53;5094761;28;20255;-67
2022/09/19 08:53:47;;;;;;;7.65;4.20;;;;;;;20.66;nan;95032.47;5094593;28;20202;-68
2022/09/19 08:56:18;;;;;;;6.80;3.95;;;;;;;19.98;nan;95025.38;5094712;28;20254;-67
2022/09/19 08:58:49;;;;;;;14.02;4.05;;;;;;;19.79;nan;94988.91;5094493;28;20198;-67
2022/09/19 09:01:17;;;;;;;10.13;3.55;;;;;;;20.15;nan;94970.78;5094308;28;20201;-68
2022/09/19 09:03:52;;;;;;;9.43;3.70;;;;;;;20.07;nan;94987.75;5093686;28;20201;-67
2022/09/19 09:06:29;;;;;;;4.75;3.90;;;;;;;20.14;nan;94979.47;5093687;28;20270;-68
2022/09/19 09:09:06;;;;;;;9.50;3.92;;;;;;;20.47;nan;94989.13;5094106;28;20204;-68
2022/09/19 09:11:40;;;;;;;10.23;3.85;;;;;;;20.14;nan;94976.88;5094051;28;20740;-68
2022/09/19 09:14:19;;;;;;;3.35;2.67;;;;;;;19.85;nan;94973.00;5094037;28;20270;-67
2022/09/19 09:16:56;;;;;;;5.30;3.22;;;;;;;20.79;nan;94965.25;5093742;28;20225;-68
2022/09/19 09:19:42;;;;;;;4.18;3.35;;;;;;;20.87;nan;94970.66;5093498;28;20694;-67
2022/09/19 09:22:20;;;;;;;6.05;3.88;;;;;;;21.37;nan;94967.66;5093418;28;20288;-67
2022/09/19 09:24:54;;;;;;;6.10;3.67;;;;;;;22.07;nan;94982.00;5093660;28;20204;-68
2022/09/19 09:27:26;;;;;;;7.05;3.10;;;;;;;22.59;nan;94951.88;5093265;28;20246;-68
2022/09/19 09:29:58;;;;;;;4.20;3.08;;;;;;;22.15;nan;94943.38;5094378;28;20201;-67
2022/09/19 09:32:30;;;;;;;3.78;3.30;;;;;;;22.68;nan;94925.22;5093615;28;20194;-67
2022/09/19 09:35:02;;;;;;;9.32;4.00;;;;;;;22.61;nan;94929.25;5094337;28;20197;-68
2022/09/19 09:37:35;;;;;;;6.15;3.13;;;;;;;22.37;nan;94917.38;5094299;28;20236;-68
2022/09/19 09:40:12;;;;;;;7.07;2.97;;;;;;;23.06;nan;94919.41;5093973;28;20628;-66
2022/09/19 09:42:45;;;;;;;3.83;3.40;;;;;;;22.30;nan;94916.25;5093026;28;20602;-68
2022/09/19 09:45:22;;;;;;;9.65;3.90;;;;;;;22.12;nan;94922.91;5093057;28;20208;-68
2022/09/19 09:47:59;;;;;;;9.52;4.13;;;;;;;22.27;nan;94905.34;5093291;28;20205;-69
2022/09/19 09:50:49;;;;;;;7.32;4.20;;;;;;;22.71;nan;94909.41;5093247;28;20713;-67
2022/09/19 09:53:29;;;;;;;4.50;3.70;;;;;;;21.50;nan;94918.41;5093174;28;20263;-67
2022/09/19 09:56:16;;;;;;;6.47;3.67;;;;;;;20.91;nan;94938.50;5092752;28;20209;-68
2022/09/19 09:58:58;;;;;;;5.65;3.55;;;;;;;20.36;nan;94927.94;5093369;28;20221;-69
2022/09/19 10:04:30;;;;;;;6.93;3.10;;;;;;;20.77;nan;94895.66;5092813;28;20294;-68
2022/09/19 10:07:09;;;;;;;7.25;3.97;;;;;;;20.22;nan;94897.16;5092738;28;20308;-66
2022/09/19 10:09:40;;;;;;;4.78;3.35;;;;;;;20.42;nan;94905.22;5092967;28;20201;-67
2022/09/19 10:12:21;;;;;;;4.63;3.92;;;;;;;20.46;nan;94898.91;5092727;28;20284;-67
2022/09/19 10:14:54;;;;;;;6.65;3.28;;;;;;;20.48;nan;94902.19;5092783;28;20272;-67
2022/09/19 10:17:23;;;;;;;5.05;3.25;;;;;;;20.25;nan;94922.75;5092204;28;20276;-66
2022/09/19 10:19:56;;;;;;;3.65;3.30;;;;;;;20.25;nan;94903.88;5092143;28;20247;-67
2022/09/19 10:22:23;;;;;;;4.97;4.35;;;;;;;20.50;nan;94893.41;5091689;28;20224;-68
2022/09/19 10:24:52;;;;;;;8.25;4.20;;;;;;;20.60;nan;94903.84;5091768;28;20193;-67
2022/09/19 10:27:23;;;;;;;4.30;3.35;;;;;;;20.86;nan;94899.28;5090867;28;20198;-67
2022/09/19 10:29:57;;;;;;;3.42;2.88;;;;;;;20.66;nan;94916.28;5091990;28;20190;-68
2022/09/19 10:32:26;;;;;;;5.05;3.10;;;;;;;20.53;nan;94898.31;5071835;28;20200;-67
2022/09/19 10:34:53;;;;;;;5.22;3.65;;;;;;;20.69;nan;94898.81;5072191;28;20244;-68
2022/09/19 10:37:23;;;;;;;3.22;2.92;;;;;;;20.51;nan;94905.38;5072366;28;20222;-67
2022/09/19 10:39:50;;;;;;;4.45;2.90;;;;;;;20.46;nan;94891.16;5072088;28;20795;-68
2022/09/19 10:42:36;;;;;;;5.65;3.47;;;;;;;20.54;nan;94874.13;5071559;28;20202;-66
2022/09/19 10:45:16;;;;;;;8.60;3.35;;;;;;;20.47;nan;94877.31;5087421;28;20193;-68
2022/09/19 10:47:42;;;;;;;3.45;3.10;;;;;;;20.22;nan;94878.28;5091583;28;20193;-67
2022/09/19 10:50:14;;;;;;;6.10;2.92;;;;;;;20.09;nan;94870.63;5092126;28;20630;-69
2022/09/19 10:52:42;;;;;;;4.03;3.08;;;;;;;20.18;nan;94872.53;5091813;28;20578;-68
2022/09/19 10:55:15;;;;;;;5.13;2.72;;;;;;;20.41;nan;94857.13;5091901;28;20229;-68
2022/09/19 10:57:45;;;;;;;6.60;4.05;;;;;;;20.68;nan;94861.00;5091884;28;20226;-67
2022/09/19 11:00:27;;;;;;;5.55;4.10;;;;;;;20.80;nan;94854.06;5091917;28;20663;-68
2022/09/19 11:02:57;;;;;;;8.07;3.75;;;;;;;20.75;nan;94850.22;5091913;28;20255;-68
2022/09/19 11:05:26;;;;;;;3.85;3.08;;;;;;;20.56;nan;94843.84;5091585;28;20283;-69
2022/09/19 11:07:56;;;;;;;6.70;2.45;;;;;;;20.42;nan;94843.28;5092011;28;20198;-68
2022/09/19 11:10:38;;;;;;;3.65;2.45;;;;;;;20.74;nan;94839.06;5091694;28;20254;-68
2022/09/19 11:13:12;;;;;;;5.07;2.30;;;;;;;20.42;nan;94828.59;5091965;28;20197;-69
2022/09/19 11:16:12;;;;;;;7.68;3.28;;;;;;;20.02;nan;94831.56;5091772;28;20205;-68
2022/09/19 11:19:02;;;;;;;4.57;2.47;;;;;;;20.07;nan;94818.31;5091914;28;20221;-68
2022/09/19 11:21:38;;;;;;;2.15;1.98;;;;;;;20.23;nan;94839.47;5091375;28;20288;-68
2022/09/19 11:24:35;;;;;;;3.00;2.70;;;;;;;20.50;nan;94809.97;5091353;28;20582;-69
2022/09/19 11:27:20;;;;;;;3.95;2.70;;;;;;;20.64;nan;94807.94;5074047;28;20629;-67
2022/09/19 11:29:58;;;;;;;5.75;2.75;;;;;;;20.95;nan;94811.56;5091176;28;20198;-69
2022/09/19 11:32:59;;;;;;;6.35;2.50;;;;;;;20.95;nan;94806.41;5091230;28;20229;-66
2022/09/19 11:35:28;;;;;;;2.50;2.03;;;;;;;20.97;nan;94801.94;5074332;28;20285;-67
2022/09/19 11:38:15;;;;;;;3.80;2.03;;;;;;;20.87;nan;94797.59;5090786;28;20226;-67
2022/09/19 11:40:53;;;;;;;4.28;2.00;;;;;;;20.89;nan;94786.22;5090947;28;20206;-67
2022/09/19 11:43:35;;;;;;;2.63;2.15;;;;;;;21.08;nan;94777.81;5091334;28;20198;-67
2022/09/19 11:46:15;;;;;;;3.03;2.50;;;;;;;20.77;nan;94782.03;5091215;28;20232;-67
2022/09/19 11:49:04;;;;;;;4.40;2.10;;;;;;;20.37;nan;94786.84;5091223;28;20193;-67
2022/09/19 11:51:39;;;;;;;5.18;2.67;;;;;;;20.15;nan;94774.72;5091448;28;20205;-68
2022/09/19 11:54:34;;;;;;;7.55;2.33;;;;;;;19.97;nan;94774.34;5091446;28;20193;-66
2022/09/19 11:57:13;;;;;;;4.70;2.05;;;;;;;20.15;nan;94769.56;5090792;28;20288;-67
2022/09/19 12:00:05;;;;;;;2.55;1.63;;;;;;;20.51;nan;94770.31;5091075;28;20632;-68
2022/09/19 12:02:49;;;;;;;5.10;1.85;;;;;;;20.60;nan;94774.75;5091310;28;20205;-67
2022/09/19 12:05:25;;;;;;;5.50;1.80;;;;;;;20.53;nan;94774.41;5090987;28;20233;-68
2022/09/19 12:08:03;;;;;;;6.53;2.28;;;;;;;20.59;nan;94773.91;5091817;28;20201;-66
2022/09/19 12:10:35;;;;;;;5.95;1.55;;;;;;;20.47;nan;94758.56;5090840;28;20674;-66
2022/09/19 12:13:14;;;;;;;5.40;2.20;;;;;;;20.55;nan;94758.78;5090764;28;20748;-68
2022/09/19 12:15:47;;;;;;;2.58;1.88;;;;;;;20.77;nan;94763.94;5090631;28;20251;-67
2022/09/19 12:18:22;;;;;;;2.22;1.92;;;;;;;21.00;nan;94757.78;5091096;28;20652;-67
2022/09/19 12:20:54;;;;;;;3.45;2.00;;;;;;;20.70;nan;94758.44;5091243;28;20201;-68
2022/09/19 12:26:13;;;;;;;3.55;1.88;;;;;;;21.22;nan;94756.91;5090590;28;20204;-68
2022/09/19 12:28:46;;;;;;;2.78;2.10;;;;;;;21.33;nan;94759.44;5090850;28;20190;-68
2022/09/19 12:31:17;;;;;;;2.55;1.75;;;;;;;21.52;nan;94763.97;5090659;28;20210;-68